To NAV CANADA Home Page Login to a new session Search on AWWS site Feedback and Comments Disclaimer Vers la page française équivalente Tips FAQ What's new on the site To the Forecasts and Observations / NOTAM section To "File a Flight Plan" website Publications and other links Update of the User's profile FIC Telephone Numbers My Weather Data Folder Route Weather Data Regional Weather Data Local Weather Data To the Forecasts and Observations / NOTAM section
Request Generated 03/29/2015 at 09:21:30 UTC . Weather information available at that time is displayed.

METAR/TAF

REGINA/REGINA INTL/SK    

METAR CYQR 290900Z 30012KT 15SM SKC 01/M00 A2991 RMK SLP148=
METAR CYQR 290800Z 31012KT 15SM SKC 01/00 A2989 RMK SLP140=
METAR CYQR 290700Z 30014KT 15SM SKC 01/01 A2985 RMK SLP129=

TAF CYQR 290538Z 2906/3006 33015G25KT P6SM SKC
BECMG 2908/2910 30012KT
FM292300 16008KT P6SM FEW080 BKN200
RMK NXT FCST BY 291200Z=
Your time UTC time
Weather data provided by Environment Canada and NAV CANADA